This is the latest recevied weather packets stored in our database for station/object K5NWZ. If no packets are shown the sender has not sent any weather packets the latest 10 day(s).
| Time | Temp. | Humidity | Pressure | Rain* | Wind** | Luminosity | Snow |
|---|---|---|---|---|---|---|---|
| 1787617172 | 28.89° C | 33% | 1030.3 hPa | 0 mm | - | 13 W/m² | - |
| 1787616867 | 28.89° C | 34% | 1029.9 hPa | 0 mm | - | 15 W/m² | - |
| 1787616566 | 28.89° C | 35% | 1029.9 hPa | 0 mm | - | 21 W/m² | - |
| 1787616265 | 29.44° C | 37% | 1030.1 hPa | 0 mm | - | 30 W/m² | - |
| 1787615963 | 29.44° C | 37% | 1029.7 hPa | 0 mm | - | 38 W/m² | - |
| 1787615659 | 29.44° C | 35% | 1029.8 hPa | 0 mm | - | 54 W/m² | - |
| 1787615353 | 29.44° C | 36% | 1029.8 hPa | 0 mm | - | 72 W/m² | - |
| 1787615050 | 29.44° C | 36% | 1029.5 hPa | 0 mm | - | 79 W/m² | - |
| 1787614746 | 30° C | 38% | 1029.6 hPa | 0 mm | - | 94 W/m² | - |
| 1787614442 | 30° C | 38% | 1029.5 hPa | 0 mm | - | 104 W/m² | - |
| 1787614139 | 30° C | 38% | 1029.5 hPa | 0 mm | - | 96 W/m² | - |
| 1787613835 | 30° C | 38% | 1029.3 hPa | 0 mm | - | 93 W/m² | - |
| 1787613530 | 30.56° C | 37% | 1029 hPa | 0 mm | - | 102 W/m² | - |
| 1787613225 | 30.56° C | 35% | 1029.4 hPa | 0 mm | - | 120 W/m² | - |
| 1787612922 | 30.56° C | 35% | 1029.3 hPa | 0 mm | - | 127 W/m² | - |
| 1787612618 | 31.11° C | 34% | 1029.4 hPa | 0 mm | - | 146 W/m² | - |
| 1787612314 | 31.11° C | 33% | 1029.3 hPa | 0 mm | - | 138 W/m² | - |
| 1787612010 | 31.11° C | 32% | 1029.3 hPa | 0 mm | - | 140 W/m² | - |
| 1787611706 | 31.11° C | 32% | 1029.4 hPa | 0 mm | - | 118 W/m² | - |
| 1787611402 | 31.11° C | 35% | 1029.5 hPa | 0 mm | - | 132 W/m² | - |
| 1787611096 | 31.67° C | 32% | 1029.4 hPa | 0 mm | - | 194 W/m² | - |
| 1787610793 | 31.11° C | 32% | 1029.5 hPa | 0 mm | - | 380 W/m² | - |
| 1787610488 | 30.56° C | 37% | 1029.4 hPa | 0 mm | - | 515 W/m² | - |
| 1787610187 | 29.44° C | 42% | 1029.5 hPa | 0 mm | - | 238 W/m² | - |
| 1787609881 | 29.44° C | 42% | 1029.7 hPa | 0 mm | - | 142 W/m² | - |
* Rain latest hour (hover to see other rain measurements)
** Current wind speed in m/s (hover to see current wind gust speed)